Deptford, New Jersey
Current Conditions -  °F | °C
As of 3:54 AM on Saturday 22 Nov 2014 (Local Time) from KPHL Reporting Station
Clear Clear  
Wind Chill: 22°   Ceiling: Unl
Heat Index: 27°   Visibility: 10mi
Dew Point: 14°   Wind: 5mph
Humidity: 58%   Direction: 230°SW
Pressure: 30.54"   Gusts: NA
Location:  39.8266°N, 75.1276°W
Report Text: KPHL 220854Z 23004KT 10SM CLR M03/M10 A3054 RMK AO2 SLP341 T10281100 55004 $
Loading
Personal Weather Stations






























Interactive Weather Map New forecast layout! Learn more

10-Day Weather Forecast

Advertisements
Track Severe Weather on mobile